createdAt,value
2018-07-07T00:00:30.783Z,13.63
2018-07-07T00:02:59.057Z,8.90
2018-07-07T00:05:27.330Z,9.63
2018-07-07T00:07:55.576Z,7.93
2018-07-07T00:10:34.301Z,10.60
2018-07-07T00:13:03.524Z,9.03
2018-07-07T00:15:31.814Z,10.77
2018-07-07T00:18:00.091Z,9.30
2018-07-07T00:20:28.359Z,10.00
2018-07-07T00:22:56.652Z,13.30
2018-07-07T00:25:24.916Z,13.07
2018-07-07T00:27:53.204Z,11.17
2018-07-07T00:30:21.475Z,8.67
2018-07-07T00:32:49.740Z,8.00
2018-07-07T00:35:18.064Z,9.20
2018-07-07T00:37:46.365Z,8.97
2018-07-07T00:40:14.680Z,8.07
2018-07-07T00:42:42.950Z,11.03
2018-07-07T00:45:11.283Z,8.80
2018-07-07T00:47:39.585Z,10.50
2018-07-07T00:50:08.352Z,14.43
2018-07-07T00:52:37.304Z,10.78
2018-07-07T00:55:05.680Z,10.57
2018-07-07T00:57:33.911Z,9.90
2018-07-07T01:00:02.119Z,11.87
2018-07-07T01:02:30.414Z,11.20
2018-07-07T01:04:58.751Z,14.63
2018-07-07T01:07:27.045Z,11.30
2018-07-07T01:09:59.426Z,9.07
2018-07-07T01:12:27.665Z,10.10
2018-07-07T01:14:56.807Z,21.02
2018-07-07T01:17:25.064Z,14.67
2018-07-07T01:19:53.361Z,11.43
2018-07-07T01:22:21.896Z,10.63
2018-07-07T01:24:50.125Z,9.90
2018-07-07T01:27:18.380Z,11.03
2018-07-07T01:29:46.861Z,12.37
2018-07-07T01:32:15.131Z,9.20
2018-07-07T01:34:43.320Z,9.40
2018-07-07T01:37:11.581Z,11.87
2018-07-07T01:39:39.834Z,9.90
2018-07-07T01:42:08.148Z,11.17
2018-07-07T01:44:36.418Z,8.90
2018-07-07T01:47:04.868Z,7.77
2018-07-07T01:49:33.178Z,7.92
2018-07-07T01:52:01.421Z,8.20
2018-07-07T01:54:30.701Z,9.53
2018-07-07T01:56:58.938Z,8.38
2018-07-07T01:59:27.216Z,7.50
2018-07-07T02:01:55.331Z,7.97
2018-07-07T02:04:23.597Z,11.50
2018-07-07T02:06:51.843Z,7.97
2018-07-07T02:09:20.154Z,8.90
2018-07-07T02:11:48.406Z,11.47
2018-07-07T02:14:16.655Z,8.63
2018-07-07T02:16:45.005Z,10.40
2018-07-07T02:19:13.216Z,16.20
2018-07-07T02:21:41.757Z,10.93
2018-07-07T02:24:09.975Z,7.97
2018-07-07T02:26:38.249Z,8.27
2018-07-07T02:29:06.596Z,11.60
2018-07-07T02:31:35.417Z,9.05
2018-07-07T02:34:05.029Z,9.53
2018-07-07T02:36:33.289Z,13.13
2018-07-07T02:39:01.567Z,8.27
2018-07-07T02:41:29.795Z,15.13
2018-07-07T02:44:02.633Z,12.33
2018-07-07T02:46:31.065Z,11.50
2018-07-07T02:48:59.525Z,9.35
2018-07-07T02:51:27.760Z,11.55
2018-07-07T02:53:56.029Z,10.13
2018-07-07T02:56:24.820Z,11.97
2018-07-07T02:58:53.112Z,11.30
2018-07-07T03:01:21.438Z,8.63
2018-07-07T03:03:49.664Z,11.20
2018-07-07T03:06:17.926Z,8.63
2018-07-07T03:08:46.220Z,9.87
2018-07-07T03:11:14.472Z,11.97
2018-07-07T03:13:42.746Z,8.40
2018-07-07T03:16:10.958Z,12.53
2018-07-07T03:18:39.203Z,8.33
2018-07-07T03:21:07.485Z,14.87
2018-07-07T03:23:35.759Z,10.10
2018-07-07T03:26:04.134Z,10.40
2018-07-07T03:28:32.412Z,10.75
2018-07-07T03:31:00.688Z,13.07
2018-07-07T03:33:28.988Z,11.63
2018-07-07T03:35:57.924Z,10.90
2018-07-07T03:38:26.184Z,9.10
2018-07-07T03:40:54.480Z,12.10
2018-07-07T03:43:27.282Z,11.12
2018-07-07T03:45:55.517Z,9.60
2018-07-07T03:48:23.861Z,18.23
2018-07-07T03:50:52.129Z,11.07
2018-07-07T03:53:20.425Z,9.38
2018-07-07T03:55:48.677Z,11.75
2018-07-07T03:58:20.127Z,14.60
2018-07-07T04:00:48.808Z,10.53
2018-07-07T04:03:17.092Z,12.15
2018-07-07T04:05:45.324Z,10.35
2018-07-07T04:08:13.669Z,9.35
2018-07-07T04:10:42.357Z,12.50
2018-07-07T04:13:13.778Z,12.00
2018-07-07T04:15:41.978Z,9.27
2018-07-07T04:18:10.247Z,13.10
2018-07-07T04:20:38.346Z,8.70
2018-07-07T04:23:06.684Z,8.93
2018-07-07T04:25:34.957Z,8.80
2018-07-07T04:28:03.828Z,12.90
2018-07-07T04:30:38.647Z,10.10
2018-07-07T04:33:06.868Z,7.60
2018-07-07T04:35:35.106Z,10.15
2018-07-07T04:38:03.448Z,8.60
2018-07-07T04:40:31.684Z,6.73
2018-07-07T04:42:59.936Z,11.75
2018-07-07T04:45:32.184Z,12.82
2018-07-07T04:48:00.403Z,8.53
2018-07-07T04:50:29.593Z,5.80
2018-07-07T04:52:57.888Z,10.93
2018-07-07T04:55:26.156Z,7.53
2018-07-07T04:57:54.423Z,7.22
2018-07-07T05:00:22.717Z,5.73
2018-07-07T05:02:50.986Z,5.73
2018-07-07T05:05:19.257Z,5.17
2018-07-07T05:07:53.950Z,6.43
2018-07-07T05:10:22.523Z,5.53
2018-07-07T05:12:51.355Z,6.20
2018-07-07T05:15:26.942Z,8.10
2018-07-07T05:17:55.197Z,7.03
2018-07-07T05:20:23.452Z,4.57
2018-07-07T05:22:51.827Z,5.95
2018-07-07T05:25:20.798Z,5.76
2018-07-07T05:27:55.612Z,7.40
2018-07-07T05:30:27.209Z,5.10
2018-07-07T05:32:55.545Z,7.47
2018-07-07T05:35:23.815Z,8.43
2018-07-07T05:37:55.827Z,5.28
2018-07-07T05:40:24.121Z,10.20
2018-07-07T05:42:52.602Z,5.90
2018-07-07T05:45:23.841Z,4.63
2018-07-07T05:47:52.615Z,8.93
2018-07-07T05:50:20.902Z,4.17
2018-07-07T05:52:49.191Z,10.10
2018-07-07T05:55:17.673Z,4.90
2018-07-07T05:57:46.016Z,5.00
2018-07-07T06:00:19.420Z,5.23
2018-07-07T06:02:48.588Z,7.67
2018-07-07T06:05:16.861Z,5.60
2018-07-07T06:07:45.069Z,4.20
2018-07-07T06:10:13.369Z,8.07
2018-07-07T06:12:41.643Z,3.50
2018-07-07T06:15:17.042Z,7.63
2018-07-07T06:17:45.374Z,4.57
2018-07-07T06:20:13.914Z,4.95
2018-07-07T06:22:42.415Z,5.27
2018-07-07T06:25:10.988Z,3.72
2018-07-07T06:27:39.354Z,6.53
2018-07-07T06:30:08.280Z,4.87
2018-07-07T06:32:36.593Z,7.57
2018-07-07T06:35:04.940Z,13.33
2018-07-07T06:37:33.713Z,4.58
2018-07-07T06:40:02.091Z,3.30
2018-07-07T06:42:30.369Z,5.23
2018-07-07T06:44:58.645Z,5.70
2018-07-07T06:47:26.927Z,4.77
2018-07-07T06:49:55.464Z,6.37
2018-07-07T06:52:23.756Z,8.00
2018-07-07T06:54:52.941Z,3.80
2018-07-07T06:57:21.216Z,7.70
2018-07-07T06:59:49.585Z,4.47
2018-07-07T07:02:18.118Z,5.08
2018-07-07T07:04:46.367Z,4.87
2018-07-07T07:07:14.897Z,10.90
2018-07-07T07:09:43.124Z,6.60
2018-07-07T07:12:11.439Z,11.53
2018-07-07T07:14:39.714Z,7.23
2018-07-07T07:17:07.981Z,7.73
2018-07-07T07:19:36.925Z,3.23
2018-07-07T07:22:05.457Z,3.60
2018-07-07T07:24:33.687Z,3.87
2018-07-07T07:27:02.175Z,6.92
2018-07-07T07:29:30.444Z,7.33
2018-07-07T07:31:58.725Z,3.83
2018-07-07T07:34:27.010Z,6.60
2018-07-07T07:36:55.248Z,7.30
2018-07-07T07:39:23.499Z,11.27
2018-07-07T07:41:52.032Z,5.63
2018-07-07T07:44:20.361Z,4.67
2018-07-07T07:46:48.700Z,9.40
2018-07-07T07:49:16.966Z,4.00
2018-07-07T07:51:45.955Z,4.30
2018-07-07T07:54:14.236Z,8.60
2018-07-07T07:56:42.578Z,6.43
2018-07-07T07:59:11.599Z,4.42
2018-07-07T08:01:44.069Z,5.73
2018-07-07T08:04:12.480Z,10.27
2018-07-07T08:06:41.662Z,4.60
2018-07-07T08:09:09.933Z,6.17
2018-07-07T08:11:38.152Z,4.10
2018-07-07T08:14:07.013Z,5.65
2018-07-07T08:16:35.277Z,6.47
2018-07-07T08:19:03.566Z,5.72
2018-07-07T08:21:32.332Z,5.13
2018-07-07T08:24:00.633Z,5.22
2018-07-07T08:26:29.195Z,4.13
2018-07-07T08:28:57.444Z,3.57
2018-07-07T08:31:26.111Z,5.62
2018-07-07T08:33:54.352Z,4.65
2018-07-07T08:36:22.662Z,5.80
2018-07-07T08:38:51.196Z,4.28
2018-07-07T08:41:19.436Z,4.13
2018-07-07T08:43:47.695Z,5.30
2018-07-07T08:46:15.891Z,2.43
2018-07-07T08:48:44.133Z,6.03
2018-07-07T08:51:22.976Z,3.10
2018-07-07T08:53:51.260Z,6.83
2018-07-07T08:56:19.555Z,6.08
2018-07-07T08:58:47.806Z,3.63
2018-07-07T09:01:16.903Z,10.13
2018-07-07T09:03:50.382Z,6.80
2018-07-07T09:06:18.433Z,3.70
2018-07-07T09:08:46.991Z,4.80
2018-07-07T09:11:15.238Z,3.40
2018-07-07T09:13:43.610Z,7.12
2018-07-07T09:16:12.439Z,4.35
2018-07-07T09:18:40.790Z,5.30
2018-07-07T09:21:09.205Z,4.03
2018-07-07T09:23:37.429Z,4.50
2018-07-07T09:26:06.052Z,5.65
2018-07-07T09:28:34.436Z,3.27
2018-07-07T09:31:02.814Z,4.90
2018-07-07T09:33:35.033Z,4.92
2018-07-07T09:36:03.356Z,3.87
2018-07-07T09:38:32.450Z,4.40
2018-07-07T09:41:00.759Z,3.03
2018-07-07T09:43:29.096Z,5.90
2018-07-07T09:45:57.693Z,3.67
2018-07-07T09:48:25.918Z,4.90
2018-07-07T09:50:54.299Z,5.30
2018-07-07T09:53:22.564Z,4.77
2018-07-07T09:55:50.870Z,4.40
2018-07-07T09:58:19.101Z,4.40
2018-07-07T10:00:47.396Z,5.40
2018-07-07T10:03:15.685Z,3.27
2018-07-07T10:05:43.923Z,5.62
2018-07-07T10:08:12.341Z,3.45
2018-07-07T10:10:41.274Z,3.72
2018-07-07T10:13:09.517Z,4.47
2018-07-07T10:15:37.882Z,2.35
2018-07-07T10:18:06.206Z,4.40
2018-07-07T10:20:37.417Z,3.60
2018-07-07T10:23:05.700Z,3.50
2018-07-07T10:25:33.919Z,6.20
2018-07-07T10:28:02.151Z,2.83
2018-07-07T10:30:31.167Z,3.92
2018-07-07T10:32:59.423Z,3.15
2018-07-07T10:35:27.676Z,2.83
2018-07-07T10:37:56.254Z,3.62
2018-07-07T10:40:24.483Z,6.20
2018-07-07T10:42:52.732Z,2.67
2018-07-07T10:45:21.138Z,3.60
2018-07-07T10:47:49.367Z,3.30
2018-07-07T10:50:22.352Z,2.57
2018-07-07T10:52:50.593Z,3.70
2018-07-07T10:55:18.853Z,3.63
2018-07-07T10:57:47.135Z,3.25
2018-07-07T11:00:16.174Z,3.35
2018-07-07T11:02:44.411Z,3.20
2018-07-07T11:05:12.716Z,2.90
2018-07-07T11:07:40.823Z,2.98
2018-07-07T11:10:09.080Z,3.17
2018-07-07T11:12:37.344Z,3.53
2018-07-07T11:15:05.624Z,2.83
2018-07-07T11:17:33.907Z,4.70
2018-07-07T11:20:02.167Z,6.10
2018-07-07T11:22:30.563Z,3.40
2018-07-07T11:24:58.894Z,2.50
2018-07-07T11:27:27.129Z,4.27
2018-07-07T11:29:55.394Z,3.23
2018-07-07T11:32:23.612Z,3.30
2018-07-07T11:34:51.907Z,4.17
2018-07-07T11:37:20.144Z,3.37
2018-07-07T11:39:48.465Z,3.87
2018-07-07T11:42:16.762Z,3.20
2018-07-07T11:44:44.909Z,2.97
2018-07-07T11:47:13.424Z,4.00
2018-07-07T11:49:41.805Z,6.50
2018-07-07T11:52:10.408Z,4.17
2018-07-07T11:54:39.311Z,3.93
2018-07-07T11:57:07.662Z,2.17
2018-07-07T11:59:35.904Z,3.37
2018-07-07T12:02:04.278Z,3.53
2018-07-07T12:04:32.625Z,4.40
2018-07-07T12:07:03.828Z,3.17
2018-07-07T12:09:36.401Z,2.45
2018-07-07T12:12:05.118Z,3.00
2018-07-07T12:14:33.421Z,2.60
2018-07-07T12:17:01.799Z,3.10
2018-07-07T12:19:30.028Z,2.57
2018-07-07T12:22:01.960Z,6.03
2018-07-07T12:24:30.216Z,2.85
2018-07-07T12:26:58.895Z,3.13
2018-07-07T12:29:27.142Z,3.62
2018-07-07T12:31:55.384Z,6.70
2018-07-07T12:34:23.616Z,4.13
2018-07-07T12:36:55.953Z,2.73
2018-07-07T12:39:24.232Z,2.90
2018-07-07T12:41:52.468Z,4.45
2018-07-07T12:44:20.744Z,3.60
2018-07-07T12:46:49.664Z,2.90
2018-07-07T12:49:17.988Z,3.43
2018-07-07T12:51:46.239Z,2.47
2018-07-07T12:54:15.380Z,2.16
2018-07-07T12:56:50.350Z,2.50
2018-07-07T12:59:18.582Z,3.17
2018-07-07T13:01:46.851Z,3.40
2018-07-07T13:04:15.741Z,2.97
2018-07-07T13:06:47.734Z,4.07
2018-07-07T13:09:16.753Z,3.83
2018-07-07T13:11:45.002Z,2.67
2018-07-07T13:14:13.200Z,4.22
2018-07-07T13:16:41.472Z,2.70
2018-07-07T13:19:09.700Z,3.27
2018-07-07T13:21:37.951Z,3.10
2018-07-07T13:24:06.361Z,4.47
2018-07-07T13:26:34.798Z,1.90
2018-07-07T13:29:03.070Z,3.20
2018-07-07T13:31:31.357Z,6.73
2018-07-07T13:33:59.600Z,2.97
2018-07-07T13:36:27.889Z,2.70
2018-07-07T13:38:56.226Z,4.35
2018-07-07T13:41:25.225Z,3.40
2018-07-07T13:43:53.776Z,2.53
2018-07-07T13:46:22.079Z,8.33
2018-07-07T13:48:50.308Z,2.60
2018-07-07T13:51:18.521Z,2.47
2018-07-07T13:53:50.699Z,4.58
2018-07-07T13:56:18.912Z,3.57
2018-07-07T13:58:47.220Z,2.98
2018-07-07T14:01:15.510Z,6.93
2018-07-07T14:03:43.740Z,2.70
2018-07-07T14:06:12.035Z,2.60
2018-07-07T14:08:43.488Z,2.43
2018-07-07T14:11:11.772Z,3.37
2018-07-07T14:13:40.490Z,2.98
2018-07-07T14:16:08.812Z,3.77
2018-07-07T14:18:37.130Z,3.95
2018-07-07T14:21:05.562Z,2.90
2018-07-07T14:23:37.494Z,2.20
2018-07-07T14:26:05.821Z,4.27
2018-07-07T14:28:34.118Z,2.70
2018-07-07T14:31:02.568Z,3.93
2018-07-07T14:33:30.856Z,2.33
2018-07-07T14:35:59.199Z,2.03
2018-07-07T14:38:32.221Z,2.53
2018-07-07T14:41:15.616Z,3.65
2018-07-07T14:43:55.427Z,5.40
2018-07-07T14:46:24.327Z,2.70
2018-07-07T14:48:52.605Z,3.30
2018-07-07T14:51:20.909Z,3.90
2018-07-07T14:53:52.387Z,2.55
2018-07-07T14:56:21.937Z,3.57
2018-07-07T14:58:51.535Z,2.62
2018-07-07T15:01:19.787Z,2.52
2018-07-07T15:03:48.048Z,7.10
2018-07-07T15:06:16.240Z,3.03
2018-07-07T15:08:48.979Z,2.87
2018-07-07T15:11:17.186Z,3.23
2018-07-07T15:13:47.415Z,3.37
2018-07-07T15:16:16.037Z,2.63
2018-07-07T15:18:44.595Z,3.50
2018-07-07T15:21:12.915Z,7.47
2018-07-07T15:23:41.131Z,3.27
2018-07-07T15:26:12.564Z,4.03
2018-07-07T15:28:41.592Z,8.10
2018-07-07T15:31:09.944Z,2.83
2018-07-07T15:33:38.265Z,2.70
2018-07-07T15:36:06.696Z,9.53
2018-07-07T15:38:34.955Z,8.50
2018-07-07T15:41:03.221Z,3.63
2018-07-07T15:43:31.527Z,2.23
2018-07-07T15:45:59.819Z,1.90
2018-07-07T15:48:28.029Z,2.97
2018-07-07T15:50:56.304Z,3.17
2018-07-07T15:53:24.528Z,5.22
2018-07-07T15:55:59.680Z,4.20
2018-07-07T15:58:27.903Z,5.70
2018-07-07T16:00:56.364Z,3.15
2018-07-07T16:03:24.648Z,2.00
2018-07-07T16:05:52.920Z,3.07
2018-07-07T16:08:20.988Z,2.58
2018-07-07T16:10:49.328Z,2.40
2018-07-07T16:13:17.580Z,3.47
2018-07-07T16:15:46.035Z,3.47
2018-07-07T16:18:14.417Z,4.10
2018-07-07T16:20:42.773Z,3.20
2018-07-07T16:23:11.074Z,3.63
2018-07-07T16:25:39.547Z,1.98
2018-07-07T16:28:07.810Z,5.27
2018-07-07T16:30:36.098Z,2.27
2018-07-07T16:33:04.381Z,5.83
2018-07-07T16:35:32.614Z,6.67
2018-07-07T16:38:00.853Z,5.20
2018-07-07T16:40:30.074Z,2.92
2018-07-07T16:42:59.916Z,2.30
2018-07-07T16:45:28.271Z,2.00
2018-07-07T16:47:56.545Z,4.53
2018-07-07T16:50:24.983Z,2.50
2018-07-07T16:52:53.235Z,4.47
2018-07-07T16:55:21.528Z,3.00
2018-07-07T16:57:50.931Z,3.05
2018-07-07T17:00:20.094Z,2.30
2018-07-07T17:02:48.362Z,4.67
2018-07-07T17:05:16.664Z,8.23
2018-07-07T17:07:45.062Z,3.20
2018-07-07T17:10:13.286Z,8.00
2018-07-07T17:12:45.711Z,2.37
2018-07-07T17:15:14.071Z,5.27
2018-07-07T17:17:42.352Z,2.80
2018-07-07T17:20:10.797Z,3.08
2018-07-07T17:22:39.661Z,3.00
2018-07-07T17:25:07.941Z,2.47
2018-07-07T17:27:36.195Z,7.60
2018-07-07T17:30:04.749Z,4.08
2018-07-07T17:32:33.052Z,3.15
2018-07-07T17:35:01.904Z,3.43
2018-07-07T17:37:30.139Z,7.00
2018-07-07T17:39:58.448Z,3.10
2018-07-07T17:42:30.904Z,4.83
2018-07-07T17:44:59.902Z,5.17
2018-07-07T17:47:28.484Z,5.72
2018-07-07T17:49:57.971Z,3.75
2018-07-07T17:52:26.233Z,2.40
2018-07-07T17:54:54.848Z,5.27
2018-07-07T17:57:26.648Z,4.53
2018-07-07T17:59:56.080Z,3.02
2018-07-07T18:02:25.038Z,2.63
2018-07-07T18:04:53.709Z,3.10
2018-07-07T18:07:22.008Z,2.40
2018-07-07T18:09:51.610Z,3.60
2018-07-07T18:12:20.305Z,2.53
2018-07-07T18:14:48.495Z,3.77
2018-07-07T18:17:16.689Z,3.87
2018-07-07T18:19:45.454Z,2.70
2018-07-07T18:22:13.729Z,3.20
2018-07-07T18:24:42.013Z,7.23
2018-07-07T18:27:10.223Z,2.85
2018-07-07T18:29:38.192Z,2.62
2018-07-07T18:32:06.470Z,2.10
2018-07-07T18:34:35.258Z,3.97
2018-07-07T18:37:04.539Z,2.20
2018-07-07T18:39:32.815Z,2.07
2018-07-07T18:42:01.112Z,6.00
2018-07-07T18:44:30.157Z,4.97
2018-07-07T18:46:58.375Z,4.28
2018-07-07T18:49:26.664Z,3.80
2018-07-07T18:51:54.936Z,2.47
2018-07-07T18:54:23.574Z,2.47
2018-07-07T18:56:51.892Z,3.15
2018-07-07T18:59:20.490Z,2.80
2018-07-07T19:01:49.254Z,2.43
2018-07-07T19:04:17.773Z,5.73
2018-07-07T19:06:46.050Z,4.27
2018-07-07T19:09:14.280Z,6.30
2018-07-07T19:11:42.584Z,3.43
2018-07-07T19:14:10.846Z,2.97
2018-07-07T19:16:39.071Z,3.03
2018-07-07T19:19:07.318Z,4.10
2018-07-07T19:21:41.234Z,2.93
2018-07-07T19:24:15.032Z,3.12
2018-07-07T19:26:48.824Z,5.37
2018-07-07T19:29:17.364Z,3.12
2018-07-07T19:31:51.648Z,5.37
2018-07-07T19:34:25.541Z,3.23
2018-07-07T19:36:59.306Z,3.00
2018-07-07T19:39:27.839Z,3.33
2018-07-07T19:41:56.529Z,4.83
2018-07-07T19:44:25.070Z,8.83
2018-07-07T19:46:54.457Z,7.75
2018-07-07T19:49:22.779Z,3.70
2018-07-07T19:51:51.080Z,5.25
2018-07-07T19:54:19.317Z,3.87
2018-07-07T19:56:47.658Z,4.00
2018-07-07T19:59:19.045Z,4.30
2018-07-07T20:01:47.386Z,6.08
2018-07-07T20:04:15.664Z,3.37
2018-07-07T20:06:43.947Z,4.67
2018-07-07T20:09:12.536Z,5.05
2018-07-07T20:11:40.810Z,5.60
2018-07-07T20:14:12.657Z,8.23
2018-07-07T20:17:00.757Z,7.83
2018-07-07T20:19:38.499Z,3.60
2018-07-07T20:22:06.895Z,5.03
2018-07-07T20:24:36.589Z,4.40
2018-07-07T20:27:10.577Z,3.73
2018-07-07T20:42:34.498Z,6.90
2018-07-07T20:45:10.228Z,5.33
2018-07-07T20:47:41.890Z,5.00
2018-07-07T20:50:10.160Z,4.37
2018-07-07T20:52:38.665Z,3.50
2018-07-07T20:55:07.553Z,5.40
2018-07-07T20:57:36.747Z,5.80
2018-07-07T21:00:05.148Z,3.10
2018-07-07T21:02:36.784Z,4.10
2018-07-07T21:05:05.101Z,3.77
2018-07-07T21:07:34.004Z,7.70
2018-07-07T21:10:02.259Z,7.93
2018-07-07T21:12:30.742Z,5.87
2018-07-07T21:15:01.840Z,4.13
2018-07-07T21:17:30.369Z,4.50
2018-07-07T21:19:58.596Z,5.33
2018-07-07T21:22:26.869Z,7.22
2018-07-07T21:24:55.071Z,10.70
2018-07-07T21:27:23.331Z,5.10
2018-07-07T21:29:51.877Z,6.15
2018-07-07T21:32:20.053Z,6.13
2018-07-07T21:34:48.313Z,9.15
2018-07-07T21:37:16.582Z,7.40
2018-07-07T21:39:44.779Z,5.10
2018-07-07T21:42:13.040Z,8.40
2018-07-07T21:44:41.272Z,9.88
2018-07-07T21:47:09.620Z,7.60
2018-07-07T21:49:37.830Z,6.13
2018-07-07T21:52:06.141Z,5.87
2018-07-07T21:54:34.480Z,6.30
2018-07-07T21:57:02.733Z,4.80
2018-07-07T21:59:31.018Z,6.30
2018-07-07T22:02:09.341Z,8.95
2018-07-07T22:04:43.520Z,4.90
2018-07-07T22:07:17.520Z,6.33
2018-07-07T22:09:45.745Z,5.30
2018-07-07T22:12:14.017Z,7.90
2018-07-07T22:14:42.257Z,6.47
2018-07-07T22:17:13.920Z,6.60
2018-07-07T22:19:42.245Z,6.30
2018-07-07T22:22:11.166Z,7.08
2018-07-07T22:24:40.476Z,7.97
2018-07-07T22:27:11.417Z,8.43
2018-07-07T22:29:39.694Z,6.00
2018-07-07T22:32:13.311Z,6.47
2018-07-07T22:34:41.773Z,8.00
2018-07-07T22:37:10.044Z,8.00
2018-07-07T22:39:41.807Z,13.33
2018-07-07T22:42:11.620Z,9.85
2018-07-07T22:44:41.841Z,10.65
2018-07-07T22:47:10.912Z,8.57
2018-07-07T22:49:39.269Z,10.73
2018-07-07T22:52:08.613Z,8.40
2018-07-07T22:54:36.889Z,6.50
2018-07-07T22:57:05.879Z,8.75
2018-07-07T22:59:34.141Z,6.57
2018-07-07T23:02:07.295Z,6.12
2018-07-07T23:04:35.535Z,14.00
2018-07-07T23:07:03.826Z,6.80
2018-07-07T23:09:32.054Z,6.80
2018-07-07T23:12:00.945Z,7.05
2018-07-07T23:14:29.180Z,6.90
2018-07-07T23:17:03.197Z,5.50
2018-07-07T23:19:32.169Z,8.73
2018-07-07T23:22:00.397Z,7.77
2018-07-07T23:24:28.676Z,6.17
2018-07-07T23:26:57.024Z,6.07
2018-07-07T23:29:25.307Z,5.93
2018-07-07T23:31:53.545Z,5.67
2018-07-07T23:34:21.815Z,7.47
2018-07-07T23:36:50.031Z,5.60
2018-07-07T23:39:18.311Z,5.67
2018-07-07T23:41:46.540Z,6.80
2018-07-07T23:44:14.835Z,7.30
2018-07-07T23:46:43.065Z,7.13
2018-07-07T23:49:11.338Z,5.03
2018-07-07T23:51:39.715Z,5.37
2018-07-07T23:54:07.959Z,7.47
2018-07-07T23:56:36.188Z,11.40
2018-07-07T23:59:04.396Z,7.23
